createdAt,value
2023-01-09T00:03:12.820Z,3.84
2023-01-09T00:08:14.817Z,3.80
2023-01-09T00:13:20.840Z,3.79
2023-01-09T00:18:22.559Z,3.80
2023-01-09T00:23:24.218Z,3.81
2023-01-09T00:28:25.900Z,3.84
2023-01-09T00:33:34.397Z,3.84
2023-01-09T00:38:37.395Z,3.87
2023-01-09T00:43:47.568Z,3.91
2023-01-09T00:48:49.828Z,3.92
2023-01-09T00:53:52.598Z,3.85
2023-01-09T00:58:54.761Z,3.79
2023-01-09T01:03:56.720Z,3.77
2023-01-09T01:08:58.389Z,3.75
2023-01-09T01:14:01.858Z,3.71
2023-01-09T01:19:03.467Z,3.65
2023-01-09T01:24:05.749Z,3.64
2023-01-09T01:29:07.431Z,3.61
2023-01-09T01:34:09.199Z,3.55
2023-01-09T01:39:11.214Z,3.55
2023-01-09T01:44:50.532Z,3.58
2023-01-09T01:49:52.748Z,3.56
2023-01-09T01:54:54.826Z,3.51
2023-01-09T01:59:58.811Z,3.49
2023-01-09T02:05:02.308Z,3.49
2023-01-09T02:10:04.306Z,3.51
2023-01-09T02:15:08.942Z,3.51
2023-01-09T02:20:36.377Z,3.52
2023-01-09T02:25:57.136Z,3.53
2023-01-09T02:31:28.754Z,3.49
2023-01-09T02:36:42.347Z,3.44
2023-01-09T02:41:53.058Z,3.46
2023-01-09T02:47:06.905Z,3.47
2023-01-09T02:52:26.960Z,3.47
2023-01-09T02:57:50.504Z,3.42
2023-01-09T03:02:58.904Z,3.42
2023-01-09T03:08:13.265Z,3.46
2023-01-09T03:13:18.694Z,3.47
2023-01-09T03:18:24.632Z,3.53
2023-01-09T03:23:27.155Z,3.61
2023-01-09T03:28:29.731Z,3.67
2023-01-09T03:33:31.584Z,3.68
2023-01-09T03:38:33.654Z,3.69
2023-01-09T03:43:36.160Z,3.73
2023-01-09T03:48:37.805Z,3.74
2023-01-09T03:53:39.623Z,3.74
2023-01-09T03:58:41.438Z,3.77
2023-01-09T04:03:43.177Z,3.78
2023-01-09T04:08:46.323Z,3.79
2023-01-09T04:13:48.294Z,3.79
2023-01-09T04:18:49.947Z,3.75
2023-01-09T04:23:51.711Z,3.74
2023-01-09T04:28:53.505Z,3.76
2023-01-09T04:33:55.315Z,3.80
2023-01-09T04:38:57.056Z,3.90
2023-01-09T04:43:58.762Z,4.01
2023-01-09T04:49:00.596Z,4.08
2023-01-09T04:54:02.319Z,4.17
2023-01-09T04:59:05.986Z,4.25
2023-01-09T05:04:08.784Z,4.31
2023-01-09T05:09:10.407Z,4.34
2023-01-09T05:14:12.955Z,4.32
2023-01-09T05:19:15.081Z,4.29
2023-01-09T05:24:35.662Z,4.28
2023-01-09T05:29:37.342Z,4.27
2023-01-09T05:34:39.017Z,4.30
2023-01-09T05:39:40.714Z,4.39
2023-01-09T05:44:42.348Z,4.49
2023-01-09T05:49:44.241Z,4.53
2023-01-09T05:54:46.041Z,4.54
2023-01-09T05:59:47.934Z,4.56
2023-01-09T06:04:49.676Z,4.61
2023-01-09T06:09:51.458Z,4.78
2023-01-09T06:14:53.142Z,4.93
2023-01-09T06:19:54.979Z,5.02
2023-01-09T06:24:56.664Z,5.17
2023-01-09T06:29:58.573Z,5.31
2023-01-09T06:35:00.223Z,5.37
2023-01-09T06:40:03.253Z,5.39
2023-01-09T06:45:05.401Z,5.45
2023-01-09T06:50:09.283Z,5.60
2023-01-09T06:55:11.044Z,5.74
2023-01-09T07:00:13.355Z,5.84
2023-01-09T07:05:15.184Z,5.88
2023-01-09T07:10:16.935Z,5.87
2023-01-09T07:15:18.830Z,5.83
2023-01-09T07:20:20.647Z,5.76
2023-01-09T07:25:22.302Z,5.69
2023-01-09T07:30:24.007Z,5.63
2023-01-09T07:35:25.850Z,5.63
2023-01-09T07:40:27.703Z,5.66
2023-01-09T07:45:29.407Z,5.70
2023-01-09T07:50:32.321Z,5.75
2023-01-09T07:55:34.028Z,5.80
2023-01-09T08:00:35.976Z,5.87
2023-01-09T08:05:37.748Z,5.97
2023-01-09T08:10:39.374Z,6.05
2023-01-09T08:15:41.074Z,6.16
2023-01-09T08:20:42.847Z,6.26
2023-01-09T08:25:44.476Z,6.40
2023-01-09T08:30:47.075Z,6.59
2023-01-09T08:35:48.864Z,6.76
2023-01-09T08:40:50.680Z,6.85
2023-01-09T08:46:10.832Z,6.93
2023-01-09T08:51:12.639Z,7.02
2023-01-09T08:56:14.368Z,7.08
2023-01-09T09:01:16.016Z,7.11
2023-01-09T09:06:17.833Z,7.16
2023-01-09T09:11:19.619Z,7.24
2023-01-09T09:16:21.377Z,7.30
2023-01-09T09:21:23.160Z,7.37
2023-01-09T09:26:24.790Z,7.46
2023-01-09T09:31:26.564Z,7.54
2023-01-09T09:36:29.304Z,7.68
2023-01-09T09:42:04.975Z,7.84
2023-01-09T09:47:31.121Z,8.01
2023-01-09T09:52:45.655Z,8.16
2023-01-09T09:57:50.483Z,8.26
2023-01-09T10:02:58.508Z,8.31
2023-01-09T10:08:16.019Z,8.35
2023-01-09T10:13:38.877Z,8.36
2023-01-09T10:18:55.758Z,8.38
2023-01-09T10:24:16.623Z,8.48
2023-01-09T10:29:57.101Z,8.57
2023-01-09T10:35:20.673Z,8.63
2023-01-09T10:40:35.514Z,8.62
2023-01-09T10:45:56.086Z,8.62
2023-01-09T10:50:57.763Z,8.67
2023-01-09T10:56:13.662Z,8.70
2023-01-09T11:01:24.928Z,8.71
2023-01-09T11:06:37.528Z,8.75
2023-01-09T11:11:41.427Z,8.81
2023-01-09T11:17:02.143Z,8.84
2023-01-09T11:22:16.489Z,8.84
2023-01-09T11:27:24.794Z,8.81
2023-01-09T11:32:28.655Z,8.78
2023-01-09T11:37:31.962Z,8.75
2023-01-09T11:42:51.828Z,8.75
2023-01-09T11:47:53.563Z,8.80
2023-01-09T11:53:16.988Z,8.88
2023-01-09T11:58:21.819Z,8.99
2023-01-09T12:03:39.243Z,9.06
2023-01-09T12:08:44.036Z,9.11
2023-01-09T12:14:06.160Z,9.16
2023-01-09T12:19:25.720Z,9.22
2023-01-09T12:25:02.239Z,9.30
2023-01-09T12:30:19.305Z,9.33
2023-01-09T12:35:42.459Z,9.33
2023-01-09T12:40:59.625Z,9.34
2023-01-09T12:46:21.899Z,9.33
2023-01-09T12:51:45.215Z,9.31
2023-01-09T12:56:54.849Z,9.33
2023-01-09T13:02:23.681Z,9.35
2023-01-09T13:07:58.466Z,9.38
2023-01-09T13:13:09.164Z,9.42
2023-01-09T13:18:29.818Z,9.42
2023-01-09T13:23:51.256Z,9.44
2023-01-09T13:29:00.795Z,9.46
2023-01-09T13:34:08.705Z,9.46
2023-01-09T13:39:25.493Z,9.50
2023-01-09T13:44:28.901Z,9.58
2023-01-09T13:49:42.932Z,9.67
2023-01-09T13:54:58.275Z,9.72
2023-01-09T14:00:12.351Z,9.76
2023-01-09T14:05:16.794Z,9.78
2023-01-09T14:10:26.575Z,9.77
2023-01-09T14:15:44.930Z,9.70
2023-01-09T14:20:52.927Z,9.56
2023-01-09T14:25:56.174Z,9.44
2023-01-09T14:30:57.788Z,9.34
2023-01-09T14:36:08.335Z,9.24
2023-01-09T14:41:42.131Z,9.15
2023-01-09T14:46:45.025Z,9.09
2023-01-09T14:51:49.435Z,9.04
2023-01-09T14:56:51.162Z,8.95
2023-01-09T15:01:57.692Z,8.89
2023-01-09T15:06:59.471Z,8.84
2023-01-09T15:12:07.718Z,8.80
2023-01-09T15:17:22.142Z,8.73
2023-01-09T15:22:33.175Z,8.70
2023-01-09T15:27:34.812Z,8.68
2023-01-09T15:32:36.615Z,8.64
2023-01-09T15:37:39.531Z,8.59
2023-01-09T15:42:58.011Z,8.58
2023-01-09T15:48:17.972Z,8.57
2023-01-09T15:53:22.454Z,8.55
2023-01-09T15:58:39.011Z,8.50
2023-01-09T16:03:41.003Z,8.47
2023-01-09T16:08:52.149Z,8.47
2023-01-09T16:13:56.799Z,8.47
2023-01-09T16:18:58.865Z,8.43
2023-01-09T16:24:05.605Z,8.36
2023-01-09T16:29:37.300Z,8.34
2023-01-09T16:34:42.479Z,8.32
2023-01-09T16:40:22.051Z,8.31
2023-01-09T16:45:26.334Z,8.27
2023-01-09T16:50:28.705Z,8.20
2023-01-09T16:55:31.032Z,8.17
2023-01-09T17:00:33.028Z,8.16
2023-01-09T17:05:34.761Z,8.14
2023-01-09T17:10:36.666Z,8.09
2023-01-09T17:15:38.359Z,8.02
2023-01-09T17:20:43.743Z,7.95
2023-01-09T17:26:04.011Z,7.92
2023-01-09T17:31:10.200Z,7.90
2023-01-09T17:36:32.278Z,7.87
2023-01-09T17:41:34.141Z,7.80
2023-01-09T17:46:38.183Z,7.74
2023-01-09T17:51:39.919Z,7.68
2023-01-09T17:56:44.942Z,7.63
2023-01-09T18:01:46.949Z,7.62
2023-01-09T18:06:49.557Z,7.69
2023-01-09T18:11:51.391Z,7.72
2023-01-09T18:16:53.237Z,7.69
2023-01-09T18:21:54.998Z,7.66
2023-01-09T18:26:56.739Z,7.66
2023-01-09T18:31:58.651Z,7.61
2023-01-09T18:37:00.538Z,7.55
2023-01-09T18:42:02.567Z,7.52
2023-01-09T18:47:04.320Z,7.56
2023-01-09T18:52:07.639Z,7.59
2023-01-09T18:57:09.519Z,7.58
2023-01-09T19:02:23.546Z,7.55
2023-01-09T19:07:25.297Z,7.55
2023-01-09T19:12:26.992Z,7.56
2023-01-09T19:17:28.619Z,7.60
2023-01-09T19:22:30.550Z,7.58
2023-01-09T19:27:32.217Z,7.52
2023-01-09T19:32:33.929Z,7.49
2023-01-09T19:37:37.179Z,7.54
2023-01-09T19:42:38.882Z,7.57
2023-01-09T19:47:40.520Z,7.52
2023-01-09T19:52:43.357Z,7.44
2023-01-09T19:57:46.471Z,7.40
2023-01-09T20:02:49.481Z,7.43
2023-01-09T20:07:57.647Z,7.50
2023-01-09T20:12:59.474Z,7.53
2023-01-09T20:18:01.985Z,7.47
2023-01-09T20:23:03.585Z,7.36
2023-01-09T20:28:05.361Z,7.34
2023-01-09T20:33:07.087Z,7.36
2023-01-09T20:38:09.090Z,7.33
2023-01-09T20:43:12.568Z,7.27
2023-01-09T20:48:14.606Z,7.27
2023-01-09T20:53:16.206Z,7.25
2023-01-09T20:58:18.213Z,7.20
2023-01-09T21:03:20.015Z,7.17
2023-01-09T21:08:21.751Z,7.20
2023-01-09T21:13:24.612Z,7.26
2023-01-09T21:18:26.301Z,7.28
2023-01-09T21:23:28.050Z,7.27
2023-01-09T21:28:31.641Z,7.28
2023-01-09T21:33:33.334Z,7.29
2023-01-09T21:38:35.002Z,7.28
2023-01-09T21:43:55.312Z,7.31
2023-01-09T21:48:57.187Z,7.32
2023-01-09T21:53:58.848Z,7.31
2023-01-09T21:59:01.203Z,7.24
2023-01-09T22:04:03.606Z,7.19
2023-01-09T22:09:05.520Z,7.15
2023-01-09T22:14:16.669Z,7.11
2023-01-09T22:19:18.442Z,7.10
2023-01-09T22:24:21.772Z,7.09
2023-01-09T22:29:23.775Z,7.08
2023-01-09T22:34:25.522Z,7.06
2023-01-09T22:39:27.195Z,7.06
2023-01-09T22:44:28.942Z,6.94
2023-01-09T22:49:37.293Z,6.80
2023-01-09T22:54:52.608Z,6.65
2023-01-09T22:59:54.325Z,6.59
2023-01-09T23:04:58.372Z,6.56
2023-01-09T23:10:02.049Z,6.52
2023-01-09T23:15:04.128Z,6.48
2023-01-09T23:20:06.267Z,6.44
2023-01-09T23:25:08.622Z,6.42
2023-01-09T23:30:10.989Z,6.42
2023-01-09T23:35:12.819Z,6.41
2023-01-09T23:40:14.544Z,6.40
2023-01-09T23:45:16.226Z,6.40
2023-01-09T23:50:17.963Z,6.39
2023-01-09T23:55:19.658Z,6.36
